Time;durP1;ratioP1;P1;durP2;ratioP2;P2;SDS_P1;SDS_P2;PMS_P1;PMS_P2;Temp;Humidity;BMP_temperature;BMP_pressure;BME280_temperature;BME280_humidity;BME280_pressure;Samples;Min_cycle;Max_cycle;Signal;HPM_P1;HPM_P2
2023/11/17 00:01:01;;;;;;;6.10;2.70;;;;;;;9.48;93.76;99580.53;6191658;28;20284;-75
2023/11/17 00:04:02;;;;;;;5.60;3.08;;;;;;;9.50;93.24;99590.03;6197120;28;20414;-73
2023/11/17 00:07:05;;;;;;;9.95;2.78;;;;;;;9.47;93.97;99601.44;6197333;28;20050;-73
2023/11/17 00:10:07;;;;;;;2.75;2.28;;;;;;;9.57;92.77;99594.72;6187545;28;20081;-73
2023/11/17 00:13:10;;;;;;;6.82;2.92;;;;;;;9.60;92.61;99586.72;6193215;28;20046;-73
2023/11/17 00:16:14;;;;;;;5.38;2.65;;;;;;;9.53;93.13;99587.22;6196786;28;20406;-72
2023/11/17 00:19:15;;;;;;;2.95;2.28;;;;;;;9.34;92.79;99570.16;6199175;28;20054;-73
2023/11/17 00:22:18;;;;;;;4.38;2.35;;;;;;;9.40;94.15;99563.72;6173713;28;20131;-75
2023/11/17 00:25:18;;;;;;;2.90;2.28;;;;;;;9.48;93.78;99564.91;6182093;28;20131;-75
2023/11/17 00:28:21;;;;;;;3.30;2.10;;;;;;;9.45;93.53;99554.69;6228515;28;20128;-72
2023/11/17 00:31:22;;;;;;;3.55;2.17;;;;;;;9.43;92.78;99551.34;6197397;28;20140;-72
2023/11/17 00:34:26;;;;;;;4.18;2.38;;;;;;;9.40;92.54;99537.69;6189349;28;20046;-73
2023/11/17 00:37:27;;;;;;;3.45;2.22;;;;;;;9.54;91.93;99539.41;6199249;28;20108;-76
2023/11/17 00:40:27;;;;;;;3.55;2.15;;;;;;;9.43;92.61;99533.13;6197506;28;20046;-76
2023/11/17 00:43:29;;;;;;;2.78;2.05;;;;;;;9.53;92.29;99530.75;6193157;28;20471;-76
2023/11/17 00:46:30;;;;;;;4.38;2.55;;;;;;;9.46;92.89;99525.09;6185106;28;20058;-73
2023/11/17 00:49:31;;;;;;;4.65;2.55;;;;;;;9.41;92.52;99518.50;6191887;28;20133;-73
2023/11/17 00:52:32;;;;;;;6.32;2.67;;;;;;;9.48;92.14;99519.81;6186110;28;20051;-75
2023/11/17 00:55:33;;;;;;;7.95;2.83;;;;;;;9.17;92.59;99500.94;6185235;28;20489;-75
2023/11/17 00:58:34;;;;;;;4.22;2.75;;;;;;;9.21;93.19;99512.84;6193372;28;20050;-76
2023/11/17 01:01:36;;;;;;;3.72;2.30;;;;;;;9.24;93.40;99514.41;6176333;28;21086;-75
2023/11/17 01:04:37;;;;;;;3.30;2.10;;;;;;;9.34;92.35;99507.66;6189015;28;20045;-72
2023/11/17 01:07:39;;;;;;;3.92;2.03;;;;;;;9.35;92.19;99506.75;6184892;28;20136;-72
2023/11/17 01:10:41;;;;;;;3.10;2.20;;;;;;;9.28;92.98;99500.25;6177770;28;20496;-76
2023/11/17 01:13:42;;;;;;;3.58;2.40;;;;;;;9.26;93.25;99492.53;6177332;28;20074;-76
2023/11/17 01:16:44;;;;;;;3.30;2.20;;;;;;;9.25;93.52;99477.03;6197548;28;20058;-72
2023/11/17 01:19:47;;;;;;;3.20;2.08;;;;;;;9.27;93.05;99477.78;6197009;28;20065;-72
2023/11/17 01:22:48;;;;;;;3.45;1.95;;;;;;;9.09;93.50;99471.97;6197388;28;20133;-73
2023/11/17 01:25:49;;;;;;;4.30;2.70;;;;;;;9.19;92.85;99460.03;6198879;28;20097;-76
2023/11/17 01:28:50;;;;;;;6.60;2.20;;;;;;;9.10;93.72;99444.16;6187447;28;20042;-72
2023/11/17 01:31:53;;;;;;;5.50;2.55;;;;;;;9.03;93.26;99418.53;6197779;28;20051;-72
2023/11/17 01:34:56;;;;;;;10.00;2.30;;;;;;;8.93;93.88;99421.84;6197312;28;20046;-73
2023/11/17 01:37:57;;;;;;;4.30;2.25;;;;;;;9.08;93.30;99407.84;6192010;28;20054;-73
2023/11/17 01:40:58;;;;;;;8.95;2.50;;;;;;;9.04;93.45;99402.00;6196787;28;20101;-76
2023/11/17 01:43:59;;;;;;;3.97;2.10;;;;;;;9.05;94.05;99382.84;6193279;28;20141;-73
2023/11/17 01:47:01;;;;;;;3.70;2.22;;;;;;;9.13;93.50;99378.94;6198313;28;20058;-75
2023/11/17 01:50:09;;;;;;;4.50;2.20;;;;;;;8.94;93.43;99372.31;6195958;28;20058;-76
2023/11/17 01:53:11;;;;;;;5.13;1.90;;;;;;;8.95;92.61;99357.53;6196828;28;20101;-76
2023/11/17 01:56:12;;;;;;;2.53;1.75;;;;;;;9.05;91.96;99362.03;6228882;28;20078;-76
2023/11/17 01:59:15;;;;;;;6.72;2.22;;;;;;;9.10;91.14;99358.28;6195497;28;20140;-72
2023/11/17 02:02:19;;;;;;;2.25;1.83;;;;;;;9.07;90.98;99354.94;6198050;28;20061;-75
2023/11/17 02:05:24;;;;;;;2.80;1.95;;;;;;;8.98;91.07;99352.16;6196888;28;20046;-72
2023/11/17 02:08:42;;;;;;;3.75;2.42;;;;;;;9.09;89.87;99341.84;6195590;28;20117;-76
2023/11/17 02:11:51;;;;;;;4.78;2.25;;;;;;;9.18;89.11;99349.06;6197933;28;20062;-72
2023/11/17 02:15:08;;;;;;;4.70;2.00;;;;;;;9.20;87.79;99343.72;6196025;28;20054;-73
2023/11/17 02:18:13;;;;;;;9.27;2.95;;;;;;;9.26;86.72;99344.16;6178925;28;20058;-75
2023/11/17 02:21:18;;;;;;;7.10;2.53;;;;;;;9.36;87.03;99339.16;6188331;28;21058;-73
2023/11/17 02:24:20;;;;;;;10.35;3.33;;;;;;;9.35;86.42;99329.72;6195817;28;20042;-72
2023/11/17 02:27:38;;;;;;;11.68;3.40;;;;;;;9.26;86.85;99323.31;6189503;28;20050;-76
2023/11/17 02:30:40;;;;;;;8.35;2.78;;;;;;;9.19;85.91;99311.66;6178474;28;20058;-72
2023/11/17 02:33:45;;;;;;;6.20;2.67;;;;;;;9.25;86.77;99297.41;6197102;28;20050;-73
2023/11/17 02:36:48;;;;;;;3.60;2.05;;;;;;;9.26;86.35;99299.06;6200980;28;20072;-73
2023/11/17 02:39:49;;;;;;;3.80;1.92;;;;;;;9.21;84.84;99295.97;6201944;28;20058;-73
2023/11/17 02:42:53;;;;;;;3.38;1.92;;;;;;;9.32;84.46;99293.44;6201421;28;20057;-72
2023/11/17 02:45:56;;;;;;;5.00;1.80;;;;;;;9.38;83.16;99289.59;6201060;28;20047;-75
2023/11/17 02:48:57;;;;;;;4.38;2.03;;;;;;;9.38;83.44;99285.22;6200807;28;20256;-72
2023/11/17 02:52:03;;;;;;;3.92;1.90;;;;;;;9.46;83.25;99276.91;6202656;28;20124;-72
2023/11/17 02:55:04;;;;;;;3.85;2.00;;;;;;;9.34;83.91;99280.34;6200405;28;20051;-76
2023/11/17 02:58:09;;;;;;;3.90;2.30;;;;;;;9.39;84.28;99288.66;6190652;28;20050;-76
2023/11/17 03:01:15;;;;;;;2.92;1.75;;;;;;;9.26;82.87;99275.66;6201574;28;20077;-72
2023/11/17 03:04:16;;;;;;;3.40;1.70;;;;;;;9.38;82.75;99276.59;6196225;28;20054;-72
2023/11/17 03:07:18;;;;;;;2.95;2.08;;;;;;;9.34;82.82;99265.53;6169585;28;20146;-72
2023/11/17 03:10:20;;;;;;;8.80;1.92;;;;;;;9.31;83.26;99254.50;6173093;28;20058;-71
2023/11/17 03:13:23;;;;;;;5.75;1.98;;;;;;;9.35;82.52;99261.16;6168763;28;20138;-72
2023/11/17 03:16:24;;;;;;;4.45;2.42;;;;;;;9.28;82.40;99250.34;6178975;28;20149;-72
2023/11/17 03:19:30;;;;;;;3.38;1.80;;;;;;;9.39;82.34;99257.41;6177511;28;20051;-76
2023/11/17 03:22:33;;;;;;;5.38;1.92;;;;;;;9.34;80.84;99256.91;6178583;28;20605;-75
2023/11/17 03:25:39;;;;;;;2.53;1.52;;;;;;;9.37;81.76;99251.47;6195907;28;20501;-76
2023/11/17 03:28:40;;;;;;;7.00;1.70;;;;;;;9.43;81.07;99238.88;6202070;28;20519;-73
2023/11/17 03:31:48;;;;;;;1.30;1.13;;;;;;;9.25;80.49;99242.75;6202210;28;20050;-76
2023/11/17 03:34:52;;;;;;;3.55;1.73;;;;;;;9.41;80.10;99248.56;6202503;28;20739;-73
2023/11/17 03:37:55;;;;;;;3.95;1.38;;;;;;;9.41;80.74;99230.34;6201117;28;20050;-76
2023/11/17 03:40:59;;;;;;;3.58;1.83;;;;;;;9.40;79.85;99227.84;6154268;28;20134;-76
2023/11/17 03:44:00;;;;;;;5.07;1.77;;;;;;;9.23;79.79;99226.41;6171722;28;20100;-76
2023/11/17 03:47:01;;;;;;;2.47;1.30;;;;;;;9.34;80.31;99223.88;6201074;28;20054;-73
2023/11/17 03:50:06;;;;;;;3.20;1.48;;;;;;;9.39;79.18;99220.97;6200812;28;20050;-74
2023/11/17 03:53:07;;;;;;;2.50;1.63;;;;;;;9.45;79.42;99221.38;6202419;28;20054;-76
2023/11/17 03:56:15;;;;;;;2.85;1.40;;;;;;;9.46;78.89;99220.44;6201956;28;20057;-76
2023/11/17 03:59:16;;;;;;;5.55;1.80;;;;;;;9.47;78.69;99223.84;6200499;28;20054;-76
2023/11/17 04:02:17;;;;;;;3.53;1.48;;;;;;;9.36;79.28;99224.63;6201817;28;20137;-75
2023/11/17 04:05:19;;;;;;;2.55;1.23;;;;;;;9.42;79.89;99223.38;6200252;28;20464;-76
2023/11/17 04:08:20;;;;;;;1.67;1.43;;;;;;;9.35;79.15;99217.75;6200600;28;20058;-72
2023/11/17 04:11:21;;;;;;;8.77;1.33;;;;;;;9.27;78.64;99214.84;6200314;28;20121;-73
2023/11/17 04:14:23;;;;;;;1.47;1.10;;;;;;;9.27;78.56;99212.25;6199899;28;20054;-73
2023/11/17 04:17:26;;;;;;;2.37;1.13;;;;;;;9.24;78.91;99215.88;6199840;28;20383;-76
2023/11/17 04:20:27;;;;;;;1.73;1.17;;;;;;;9.22;78.18;99198.69;6201135;28;20054;-72
2023/11/17 04:23:28;;;;;;;4.72;1.58;;;;;;;9.29;78.82;99199.97;6199829;28;20448;-72
2023/11/17 04:26:29;;;;;;;4.22;1.60;;;;;;;9.28;78.88;99198.28;6201530;28;20058;-72
2023/11/17 04:29:31;;;;;;;2.55;1.40;;;;;;;9.34;78.82;99190.03;6201279;28;20046;-76
2023/11/17 04:32:31;;;;;;;4.38;1.05;;;;;;;9.19;78.81;99186.72;6200628;28;20062;-75
2023/11/17 04:35:32;;;;;;;3.22;1.15;;;;;;;9.27;77.99;99192.25;6200405;28;20047;-76
2023/11/17 04:38:34;;;;;;;2.67;1.25;;;;;;;9.26;77.63;99192.34;6199434;28;20050;-76
2023/11/17 04:41:36;;;;;;;1.95;1.30;;;;;;;9.27;78.56;99189.66;6201031;28;20054;-76
2023/11/17 04:44:38;;;;;;;3.40;1.70;;;;;;;9.26;78.57;99177.53;6180362;28;20054;-76
2023/11/17 04:47:41;;;;;;;2.45;1.50;;;;;;;9.25;78.27;99177.69;6169265;28;20055;-76
2023/11/17 04:50:42;;;;;;;3.63;1.27;;;;;;;9.21;78.86;99173.63;6176528;28;20137;-76
2023/11/17 04:53:46;;;;;;;1.90;1.23;;;;;;;9.22;78.88;99170.06;6153840;28;20062;-76
2023/11/17 04:56:47;;;;;;;1.73;0.98;;;;;;;9.06;79.00;99167.72;6172179;28;20061;-73
2023/11/17 04:59:50;;;;;;;2.72;1.20;;;;;;;9.16;78.98;99162.69;6174988;28;20055;-76
2023/11/17 05:02:51;;;;;;;1.52;1.20;;;;;;;9.22;79.55;99157.88;6176471;28;20051;-76
2023/11/17 05:05:52;;;;;;;2.28;1.50;;;;;;;9.19;79.64;99160.72;6155476;28;20062;-72
2023/11/17 05:08:52;;;;;;;2.03;1.40;;;;;;;9.13;80.75;99160.31;6185552;28;20054;-72
2023/11/17 05:11:53;;;;;;;3.75;1.25;;;;;;;9.17;80.45;99151.34;6173999;28;20062;-73
2023/11/17 05:14:54;;;;;;;2.67;1.10;;;;;;;9.05;80.26;99142.63;6183583;28;20070;-72
2023/11/17 05:17:55;;;;;;;2.78;1.08;;;;;;;9.00;80.60;99137.72;6183410;28;20058;-72
2023/11/17 05:20:56;;;;;;;2.10;1.52;;;;;;;9.10;80.54;99139.69;6181561;28;20065;-72
2023/11/17 05:23:59;;;;;;;1.67;1.15;;;;;;;9.14;81.09;99133.31;6195030;28;20062;-74
2023/11/17 05:27:00;;;;;;;3.88;1.40;;;;;;;9.07;80.55;99125.13;6188261;28;20058;-76
2023/11/17 05:30:06;;;;;;;1.77;1.00;;;;;;;9.05;80.37;99121.78;6198347;28;20061;-73
2023/11/17 05:33:07;;;;;;;2.47;1.17;;;;;;;9.04;79.63;99118.38;6196291;28;20145;-72
2023/11/17 05:36:08;;;;;;;1.83;1.20;;;;;;;9.00;80.01;99111.72;6199792;28;20047;-76
2023/11/17 05:39:11;;;;;;;2.88;1.40;;;;;;;9.02;80.30;99106.41;6197757;28;20425;-75
2023/11/17 05:42:12;;;;;;;2.75;1.13;;;;;;;8.99;79.70;99098.81;6180305;28;20454;-72
2023/11/17 05:45:14;;;;;;;7.15;2.20;;;;;;;9.04;79.67;99099.34;6174204;28;20106;-74
2023/11/17 05:48:17;;;;;;;1.63;1.42;;;;;;;8.98;79.55;99092.78;6175231;28;20063;-75
2023/11/17 05:51:18;;;;;;;3.55;2.08;;;;;;;8.99;78.77;99098.81;6186957;28;20058;-75
2023/11/17 05:54:19;;;;;;;2.53;1.70;;;;;;;9.14;79.11;99099.50;6199028;28;20092;-75
2023/11/17 05:57:20;;;;;;;2.28;1.50;;;;;;;9.15;79.36;99106.38;6197930;28;20137;-76
2023/11/17 06:00:21;;;;;;;1.92;1.38;;;;;;;9.19;77.99;99100.84;6196911;28;20054;-75
2023/11/17 06:03:21;;;;;;;1.52;1.23;;;;;;;9.22;78.42;99092.81;6198765;28;20058;-76
2023/11/17 06:06:23;;;;;;;2.53;1.42;;;;;;;9.17;77.59;99092.31;6196346;28;20050;-76
2023/11/17 06:09:24;;;;;;;1.60;1.30;;;;;;;9.31;79.36;99099.16;6195532;28;20497;-73
2023/11/17 06:12:26;;;;;;;6.38;1.73;;;;;;;9.28;78.83;99092.38;6165147;28;20057;-76
2023/11/17 06:15:27;;;;;;;;;;;;;;;9.36;78.17;99098.81;6197446;28;20133;-74
2023/11/17 06:18:28;;;;;;;1.40;1.30;;;;;;;9.33;77.36;99099.03;6182151;28;19930;-72
2023/11/17 06:21:29;;;;;;;2.90;1.35;;;;;;;9.37;76.95;99097.88;6179216;28;20050;-73
2023/11/17 06:24:32;;;;;;;4.35;2.00;;;;;;;9.40;76.95;99100.25;6172581;28;20131;-72
2023/11/17 06:27:37;;;;;;;5.43;1.83;;;;;;;9.41;77.17;99088.91;6173982;28;20059;-73
2023/11/17 06:30:38;;;;;;;5.70;1.40;;;;;;;9.40;76.52;99100.25;6188544;28;20062;-73
2023/11/17 06:33:44;;;;;;;3.20;1.38;;;;;;;9.44;77.72;99092.13;6196695;28;20057;-75
2023/11/17 06:36:45;;;;;;;3.30;1.35;;;;;;;9.55;76.78;99100.94;6197658;28;20104;-76
2023/11/17 06:39:47;;;;;;;3.67;1.75;;;;;;;9.45;76.53;99100.75;6197621;28;20050;-75
2023/11/17 06:42:48;;;;;;;3.17;1.80;;;;;;;9.54;77.50;99107.09;6196555;28;20488;-75
2023/11/17 06:45:52;;;;;;;6.25;1.95;;;;;;;9.60;78.24;99106.66;6197492;28;20054;-75
2023/11/17 06:48:52;;;;;;;3.53;2.17;;;;;;;9.66;78.99;99117.47;6197569;28;20129;-72
2023/11/17 06:51:57;;;;;;;4.00;2.30;;;;;;;9.63;79.45;99112.47;6196383;28;20062;-72
2023/11/17 06:54:58;;;;;;;12.40;5.32;;;;;;;9.44;81.93;99114.72;6197583;28;20509;-73
2023/11/17 06:57:59;;;;;;;10.13;4.93;;;;;;;9.44;83.72;99119.94;6197719;28;20065;-72
2023/11/17 07:01:02;;;;;;;6.57;2.75;;;;;;;9.30;85.38;99126.13;6196536;28;20077;-73
2023/11/17 07:04:07;;;;;;;3.58;1.98;;;;;;;9.15;87.04;99117.63;6197394;28;20046;-74
2023/11/17 07:07:08;;;;;;;15.52;4.55;;;;;;;9.07;88.10;99128.56;6197421;28;20161;-75
2023/11/17 07:10:14;;;;;;;42.50;14.05;;;;;;;8.90;89.50;99123.69;6196395;28;20505;-77
2023/11/17 07:13:17;;;;;;;31.33;10.75;;;;;;;9.06;89.78;99123.47;6197361;28;20109;-74
2023/11/17 07:16:26;;;;;;;9.20;4.97;;;;;;;9.07;90.68;99122.53;6197377;28;20058;-75
2023/11/17 07:19:27;;;;;;;6.85;3.63;;;;;;;9.10;92.07;99126.66;6200404;28;20054;-78
2023/11/17 07:22:28;;;;;;;7.63;2.88;;;;;;;8.98;92.74;99113.59;6201671;28;20062;-75
2023/11/17 07:25:32;;;;;;;3.97;2.40;;;;;;;8.71;92.93;99126.72;6201761;28;20046;-75
2023/11/17 07:28:32;;;;;;;5.78;2.60;;;;;;;8.96;93.82;99125.06;6202383;28;20054;-75
2023/11/17 07:31:42;;;;;;;3.75;2.42;;;;;;;9.07;94.71;99118.13;6200564;28;20058;-75
2023/11/17 07:34:45;;;;;;;6.50;2.17;;;;;;;9.01;93.61;99121.16;6201603;28;20058;-75
2023/11/17 07:37:46;;;;;;;4.78;2.33;;;;;;;8.96;95.78;99112.88;6200299;28;20452;-75
2023/11/17 07:40:47;;;;;;;5.03;2.20;;;;;;;9.18;95.55;99120.03;6200454;28;20083;-78
2023/11/17 07:43:48;;;;;;;2.90;2.13;;;;;;;9.13;95.84;99116.06;6201257;28;20109;-75
2023/11/17 07:46:49;;;;;;;16.95;3.15;;;;;;;9.07;95.68;99107.72;6199989;28;20050;-74
2023/11/17 07:49:54;;;;;;;9.85;2.55;;;;;;;9.17;96.02;99113.13;6201294;28;20056;-75
2023/11/17 07:52:55;;;;;;;4.00;2.50;;;;;;;9.17;96.62;99110.53;6201364;28;20047;-75
2023/11/17 07:55:56;;;;;;;3.65;2.22;;;;;;;9.10;97.34;99111.91;6200081;28;20054;-74
2023/11/17 07:58:59;;;;;;;4.40;2.85;;;;;;;9.02;97.56;99106.41;6201260;28;20532;-74
2023/11/17 08:02:00;;;;;;;3.00;2.20;;;;;;;8.97;97.56;99111.09;6201158;28;20133;-74
2023/11/17 08:05:03;;;;;;;2.70;2.10;;;;;;;9.02;98.26;99104.63;6200644;28;20413;-74
2023/11/17 08:08:04;;;;;;;5.03;2.70;;;;;;;9.02;99.10;99109.84;6199698;28;20060;-74
2023/11/17 08:11:05;;;;;;;5.00;2.72;;;;;;;9.12;97.65;99102.22;6199671;28;20512;-78
2023/11/17 08:14:08;;;;;;;5.30;2.22;;;;;;;9.08;96.97;99098.19;6200742;28;20046;-78
2023/11/17 08:17:11;;;;;;;5.05;2.42;;;;;;;9.01;98.98;99109.94;6200719;28;20539;-78
2023/11/17 08:20:14;;;;;;;6.57;3.08;;;;;;;9.11;97.64;99110.97;6199400;28;20409;-75
2023/11/17 08:23:19;;;;;;;5.55;3.42;;;;;;;9.10;97.58;99106.72;6200775;28;20054;-75
2023/11/17 08:26:20;;;;;;;8.88;3.33;;;;;;;9.11;97.24;99100.56;6200458;28;20097;-75
2023/11/17 08:29:21;;;;;;;6.55;3.13;;;;;;;9.21;97.51;99096.38;6199852;28;20050;-75
2023/11/17 08:32:22;;;;;;;6.45;3.78;;;;;;;9.20;97.90;99101.66;6200312;28;20065;-78
2023/11/17 08:35:25;;;;;;;7.28;3.20;;;;;;;9.24;97.85;99103.13;6199123;28;20046;-78
2023/11/17 08:38:27;;;;;;;3.80;2.85;;;;;;;9.23;97.50;99099.69;6198298;28;20050;-78
2023/11/17 08:41:28;;;;;;;8.43;3.08;;;;;;;9.13;97.90;99090.88;6175104;28;20057;-78
2023/11/17 08:44:29;;;;;;;6.75;3.50;;;;;;;9.15;97.22;99082.97;6175869;28;20054;-79
2023/11/17 08:47:29;;;;;;;6.40;3.10;;;;;;;9.11;98.35;99091.91;6175945;28;20062;-78
2023/11/17 08:50:31;;;;;;;6.07;3.00;;;;;;;8.98;98.93;99084.16;6176372;28;20061;-76
2023/11/17 08:53:32;;;;;;;3.70;2.63;;;;;;;8.89;99.39;99085.59;6174689;28;20113;-75
2023/11/17 08:56:35;;;;;;;10.18;2.92;;;;;;;8.86;99.46;99091.84;6175621;28;20046;-75
2023/11/17 08:59:37;;;;;;;7.70;3.10;;;;;;;8.87;99.71;99087.47;6176022;28;20058;-75
2023/11/17 09:02:45;;;;;;;6.10;2.17;;;;;;;8.69;99.46;99092.19;6174375;28;20163;-75
2023/11/17 09:05:45;;;;;;;4.40;2.67;;;;;;;8.74;100.00;99082.28;6174400;28;20079;-77
2023/11/17 09:08:46;;;;;;;4.65;2.63;;;;;;;8.64;100.00;99082.09;6174391;28;20051;-77
2023/11/17 09:11:48;;;;;;;6.60;2.75;;;;;;;8.65;100.00;99083.75;6174178;28;20054;-77
2023/11/17 09:14:48;;;;;;;10.47;4.80;;;;;;;8.83;100.00;99091.22;6190250;28;20046;-75
2023/11/17 09:17:52;;;;;;;7.97;3.58;;;;;;;8.72;100.00;99091.16;6175246;28;20137;-78
2023/11/17 09:20:53;;;;;;;14.10;6.68;;;;;;;8.53;100.00;99084.59;6174468;28;20055;-78
2023/11/17 09:23:55;;;;;;;9.93;3.80;;;;;;;8.35;100.00;99086.63;6173620;28;20420;-77
2023/11/17 09:26:57;;;;;;;12.15;3.88;;;;;;;8.73;100.00;99082.38;6175158;28;20054;-75
2023/11/17 09:29:58;;;;;;;6.55;3.55;;;;;;;8.70;100.00;99082.63;6174715;28;20402;-77
2023/11/17 09:32:59;;;;;;;4.30;3.10;;;;;;;8.64;100.00;99070.84;6173605;28;20109;-75
2023/11/17 09:36:00;;;;;;;8.95;4.03;;;;;;;8.68;100.00;99078.34;6174702;28;20051;-75
2023/11/17 09:39:01;;;;;;;5.93;3.10;;;;;;;8.61;100.00;99074.50;6173355;28;20058;-77
2023/11/17 09:42:03;;;;;;;7.03;3.42;;;;;;;8.70;100.00;99075.63;6173489;28;20074;-75
2023/11/17 09:45:08;;;;;;;;;;;;;;;8.56;100.00;99073.97;6174825;28;20467;-78
2023/11/17 09:48:14;;;;;;;8.95;3.53;;;;;;;8.77;100.00;99079.50;6174280;28;20373;-74
2023/11/17 09:51:19;;;;;;;7.15;3.25;;;;;;;8.83;100.00;99088.63;6173306;28;20574;-74
2023/11/17 09:54:23;;;;;;;9.75;4.25;;;;;;;8.65;100.00;99080.34;6173264;28;20058;-77
2023/11/17 09:57:25;;;;;;;13.13;6.18;;;;;;;8.81;100.00;99075.75;6174387;28;20142;-77
2023/11/17 10:00:27;;;;;;;7.18;3.70;;;;;;;8.74;100.00;99082.28;6174269;28;20533;-74
2023/11/17 10:03:34;;;;;;;10.27;4.72;;;;;;;8.83;100.00;99076.47;6173140;28;20050;-77
2023/11/17 10:06:41;;;;;;;12.90;4.60;;;;;;;8.84;100.00;99072.91;6174270;28;20058;-77
2023/11/17 10:09:44;;;;;;;11.77;4.47;;;;;;;8.80;100.00;99070.63;6174291;28;20501;-77
2023/11/17 10:12:50;;;;;;;7.45;4.43;;;;;;;8.83;100.00;99078.22;6174313;28;20057;-74
2023/11/17 10:15:51;;;;;;;7.82;3.72;;;;;;;8.73;100.00;99072.84;6172623;28;20478;-77
2023/11/17 10:18:54;;;;;;;6.35;3.70;;;;;;;8.82;100.00;99076.56;6173778;28;20414;-77
2023/11/17 10:21:55;;;;;;;;;;;;;;;8.75;100.00;99064.91;6174494;28;20051;-77
2023/11/17 10:24:57;;;;;;;12.98;4.57;;;;;;;8.86;100.00;99062.41;6172944;28;19926;-75
2023/11/17 10:27:59;;;;;;;8.38;4.10;;;;;;;8.86;100.00;99060.63;6172625;28;20579;-74
2023/11/17 10:31:01;;;;;;;;;;;;;;;8.88;100.00;99056.16;6174312;28;20409;-78
2023/11/17 10:34:03;;;;;;;8.77;3.53;;;;;;;9.01;100.00;99061.31;6173769;28;19929;-75
2023/11/17 10:37:06;;;;;;;9.85;3.88;;;;;;;8.85;100.00;99060.72;6173687;28;20142;-75
2023/11/17 10:40:10;;;;;;;5.88;3.15;;;;;;;9.07;100.00;99052.25;6173759;28;20051;-74
2023/11/17 10:43:11;;;;;;;6.18;3.38;;;;;;;9.13;100.00;99057.03;6173413;28;20055;-78
2023/11/17 10:46:16;;;;;;;21.90;11.13;;;;;;;9.19;100.00;99042.75;6173366;28;20134;-78
2023/11/17 10:49:19;;;;;;;8.95;4.93;;;;;;;9.11;100.00;99047.69;6174076;28;20059;-76
2023/11/17 10:52:31;;;;;;;;;;;;;;;9.15;100.00;99051.72;6172864;28;20055;-73
2023/11/17 10:55:34;;;;;;;16.60;8.63;;;;;;;9.12;100.00;99044.97;6178135;28;20325;-74
2023/11/17 10:58:35;;;;;;;7.75;4.60;;;;;;;9.12;100.00;99044.13;6177060;28;20522;-74
2023/11/17 11:01:39;;;;;;;10.48;4.95;;;;;;;9.26;100.00;99050.00;6178195;28;20130;-74
2023/11/17 11:04:40;;;;;;;6.97;3.55;;;;;;;9.15;100.00;99047.34;6176759;28;20409;-77
2023/11/17 11:07:44;;;;;;;6.95;3.35;;;;;;;9.08;100.00;99046.13;6176930;28;20433;-76
2023/11/17 11:10:56;;;;;;;5.05;3.42;;;;;;;9.12;100.00;99046.72;6178355;28;20047;-74
2023/11/17 11:13:59;;;;;;;12.38;3.65;;;;;;;9.16;100.00;99042.97;6178051;28;20059;-74
2023/11/17 11:17:01;;;;;;;11.82;3.58;;;;;;;9.16;100.00;99043.81;6178124;28;20051;-74
2023/11/17 11:20:06;;;;;;;8.53;3.43;;;;;;;9.26;100.00;99047.41;6177924;28;20486;-77
2023/11/17 11:23:08;;;;;;;11.50;4.97;;;;;;;9.37;100.00;99051.84;6177761;28;20066;-74
2023/11/17 11:26:13;;;;;;;7.28;3.13;;;;;;;9.27;100.00;99036.06;6176525;28;20552;-74
2023/11/17 11:29:19;;;;;;;4.00;2.83;;;;;;;9.38;100.00;99050.91;6176498;28;20055;-74
2023/11/17 11:32:23;;;;;;;4.50;2.53;;;;;;;9.32;100.00;99043.53;6176533;28;20061;-77
2023/11/17 11:35:24;;;;;;;5.55;2.67;;;;;;;9.41;100.00;99055.03;6177425;28;20046;-78
2023/11/17 11:38:26;;;;;;;4.20;2.60;;;;;;;9.43;100.00;99047.97;6176253;28;20066;-74
2023/11/17 11:41:28;;;;;;;4.38;2.83;;;;;;;9.41;100.00;99048.09;6176112;28;20061;-74
2023/11/17 11:44:33;;;;;;;3.65;2.45;;;;;;;9.45;100.00;99054.75;6176013;28;20417;-74
2023/11/17 11:47:34;;;;;;;4.85;2.80;;;;;;;9.48;100.00;99054.50;6176859;28;20054;-74
2023/11/17 11:50:39;;;;;;;4.28;2.80;;;;;;;9.67;100.00;99046.19;6177384;28;20085;-74
2023/11/17 11:53:55;;;;;;;4.22;2.67;;;;;;;9.61;100.00;99045.81;6175913;28;20058;-74
2023/11/17 11:57:02;;;;;;;5.75;2.63;;;;;;;9.71;100.00;99048.56;6177209;28;20051;-74
2023/11/17 12:00:12;;;;;;;3.53;2.42;;;;;;;9.48;100.00;99051.06;6175923;28;20202;-74
2023/11/17 12:03:15;;;;;;;2.88;1.92;;;;;;;9.35;100.00;99043.31;6177100;28;20053;-74
2023/11/17 12:06:21;;;;;;;2.75;2.00;;;;;;;9.28;100.00;99048.13;6175320;28;20500;-76
2023/11/17 12:09:24;;;;;;;3.53;2.08;;;;;;;9.24;100.00;99051.88;6175790;28;20512;-77
2023/11/17 12:12:30;;;;;;;4.95;2.17;;;;;;;9.26;100.00;99054.38;6176610;28;20991;-76
2023/11/17 12:15:34;;;;;;;4.50;2.17;;;;;;;9.22;100.00;99053.75;6176763;28;20478;-76
2023/11/17 12:18:35;;;;;;;2.53;2.20;;;;;;;9.26;100.00;99060.41;6175215;28;20054;-76
2023/11/17 12:21:41;;;;;;;6.80;3.15;;;;;;;9.39;100.00;99055.19;6175227;28;20054;-74
2023/11/17 12:24:43;;;;;;;3.80;2.85;;;;;;;9.41;100.00;99053.28;6176514;28;20047;-77
2023/11/17 12:27:46;;;;;;;4.32;2.92;;;;;;;9.30;100.00;99060.22;6176537;28;20101;-77
2023/11/17 12:30:48;;;;;;;5.28;2.95;;;;;;;9.34;100.00;99059.88;6176519;28;20061;-76
2023/11/17 12:33:51;;;;;;;9.73;3.05;;;;;;;9.35;100.00;99058.09;6176163;28;20101;-76
2023/11/17 12:37:05;;;;;;;3.35;2.55;;;;;;;9.38;100.00;99056.09;6175303;28;20057;-73
2023/11/17 12:40:14;;;;;;;3.58;3.10;;;;;;;9.34;100.00;99052.06;6176232;28;20078;-76
2023/11/17 12:43:15;;;;;;;3.67;2.75;;;;;;;9.12;100.00;99052.78;6174930;28;20387;-74
2023/11/17 12:46:20;;;;;;;4.75;3.05;;;;;;;9.29;100.00;99046.38;6175741;28;20046;-77
2023/11/17 12:49:22;;;;;;;4.05;2.78;;;;;;;9.44;100.00;99047.03;6174985;28;20047;-74
2023/11/17 12:52:23;;;;;;;4.17;2.83;;;;;;;9.49;100.00;99052.72;6175855;28;20093;-75
2023/11/17 12:55:24;;;;;;;3.88;2.72;;;;;;;9.48;100.00;99051.06;6174754;28;20050;-74
2023/11/17 12:58:25;;;;;;;5.25;2.95;;;;;;;9.55;100.00;99049.69;6175515;28;20050;-74
2023/11/17 13:01:27;;;;;;;5.20;3.03;;;;;;;9.42;100.00;99047.13;6175529;28;20137;-73
2023/11/17 13:04:28;;;;;;;5.32;2.90;;;;;;;9.35;100.00;99043.31;6174303;28;20047;-73
2023/11/17 13:07:29;;;;;;;5.15;3.35;;;;;;;9.44;100.00;99034.00;6175627;28;20505;-75
2023/11/17 13:10:30;;;;;;;4.45;3.15;;;;;;;9.31;100.00;99036.69;6175505;28;20050;-76
2023/11/17 13:13:31;;;;;;;4.75;3.53;;;;;;;9.42;100.00;99036.72;6175363;28;20094;-74
2023/11/17 13:16:33;;;;;;;12.05;6.40;;;;;;;9.42;100.00;99038.50;6174761;28;20418;-76
2023/11/17 13:19:36;;;;;;;20.10;10.18;;;;;;;9.58;100.00;99033.03;6174395;28;20061;-77
2023/11/17 13:22:37;;;;;;;11.52;6.57;;;;;;;9.51;100.00;99037.00;6175084;28;20082;-77
2023/11/17 13:26:15;;;;;;;13.43;7.22;;;;;;;9.64;100.00;99032.56;6175074;28;20539;-76
2023/11/17 13:29:19;;;;;;;15.13;8.98;;;;;;;9.66;100.00;99026.28;6153308;28;20134;-74
2023/11/17 13:32:20;;;;;;;17.42;9.88;;;;;;;9.62;100.00;99034.44;6175007;28;20058;-76
2023/11/17 13:35:24;;;;;;;16.83;9.50;;;;;;;9.52;100.00;99041.28;6173762;28;20138;-76
2023/11/17 13:38:26;;;;;;;18.33;8.32;;;;;;;9.50;100.00;99036.16;6174495;28;20047;-76
2023/11/17 13:41:32;;;;;;;16.75;8.73;;;;;;;9.56;100.00;99027.91;6174881;28;20051;-76
2023/11/17 13:44:33;;;;;;;18.63;7.63;;;;;;;9.45;100.00;99036.50;6173365;28;20057;-76
2023/11/17 13:47:37;;;;;;;24.33;11.60;;;;;;;9.52;100.00;99033.47;6174285;28;20517;-73
2023/11/17 13:50:39;;;;;;;24.33;12.68;;;;;;;9.66;100.00;99022.88;6174427;28;20122;-74
2023/11/17 13:53:40;;;;;;;42.28;17.10;;;;;;;9.65;100.00;99026.41;6174716;28;20047;-74
2023/11/17 13:56:47;;;;;;;33.55;17.05;;;;;;;9.67;100.00;99017.53;6173101;28;20047;-74
2023/11/17 13:59:49;;;;;;;33.05;15.45;;;;;;;9.60;100.00;99025.94;6169507;28;20051;-77
2023/11/17 14:02:50;;;;;;;;;;;;;;;9.63;100.00;99025.69;6162744;28;20093;-74
2023/11/17 14:05:54;;;;;;;13.25;7.35;;;;;;;9.58;100.00;99033.84;6175512;28;19921;-74
2023/11/17 14:08:56;;;;;;;13.57;9.15;;;;;;;9.65;100.00;99027.22;6195662;28;20053;-74
2023/11/17 14:11:58;;;;;;;11.27;7.50;;;;;;;9.61;100.00;99025.78;6195375;28;20058;-77
2023/11/17 14:14:59;;;;;;;11.50;6.57;;;;;;;9.53;100.00;99024.69;6185067;28;20505;-77
2023/11/17 14:18:02;;;;;;;11.82;8.27;;;;;;;9.53;100.00;99030.72;6185487;28;20134;-75
2023/11/17 14:21:05;;;;;;;12.25;7.22;;;;;;;9.50;100.00;99032.75;6161681;28;20498;-77
2023/11/17 14:24:08;;;;;;;;;;;;;;;9.57;100.00;99028.75;6154662;28;20054;-77
2023/11/17 14:27:11;;;;;;;10.40;5.82;;;;;;;9.64;100.00;99016.94;6165818;28;19930;-77